createdAt,value
2019-04-20T00:00:44.061Z,10.25
2019-04-20T00:03:09.596Z,10.40
2019-04-20T00:05:39.219Z,11.60
2019-04-20T00:08:15.866Z,13.68
2019-04-20T00:10:47.613Z,13.80
2019-04-20T00:13:22.948Z,9.53
2019-04-20T00:15:40.663Z,15.98
2019-04-20T00:18:11.426Z,10.03
2019-04-20T00:20:51.455Z,9.95
2019-04-20T00:23:28.806Z,10.13
2019-04-20T00:26:24.944Z,10.95
2019-04-20T00:29:06.925Z,13.00
2019-04-20T00:31:30.310Z,8.05
2019-04-20T00:33:56.291Z,12.45
2019-04-20T00:36:18.045Z,11.48
2019-04-20T00:38:53.049Z,13.58
2019-04-20T00:41:20.335Z,12.55
2019-04-20T00:43:49.155Z,10.32
2019-04-20T00:46:28.079Z,15.43
2019-04-20T00:48:59.478Z,12.70
2019-04-20T00:51:35.155Z,15.10
2019-04-20T00:53:56.872Z,12.70
2019-04-20T00:56:24.347Z,11.12
2019-04-20T00:59:09.196Z,9.33
2019-04-20T01:01:42.435Z,11.93
2019-04-20T01:04:14.862Z,11.08
2019-04-20T01:07:00.135Z,11.73
2019-04-20T01:09:19.981Z,11.95
2019-04-20T01:11:50.131Z,10.53
2019-04-20T01:14:27.280Z,9.78
2019-04-20T01:16:58.180Z,13.35
2019-04-20T01:19:20.618Z,11.90
2019-04-20T01:21:58.192Z,12.73
2019-04-20T01:24:27.510Z,15.13
2019-04-20T01:26:54.861Z,10.95
2019-04-20T01:29:30.188Z,11.15
2019-04-20T01:32:06.150Z,11.40
2019-04-20T01:34:37.897Z,14.07
2019-04-20T01:37:09.547Z,12.45
2019-04-20T01:39:31.920Z,14.95
2019-04-20T01:41:54.024Z,12.40
2019-04-20T01:44:27.012Z,11.60
2019-04-20T01:46:58.706Z,11.50
2019-04-20T01:49:27.464Z,13.90
2019-04-20T01:52:04.903Z,11.90
2019-04-20T01:54:48.464Z,12.80
2019-04-20T01:57:08.265Z,13.93
2019-04-20T01:59:46.003Z,13.75
2019-04-20T02:02:43.746Z,13.03
2019-04-20T02:05:16.664Z,14.87
2019-04-20T02:07:44.557Z,13.72
2019-04-20T02:10:14.827Z,12.90
2019-04-20T02:12:47.544Z,13.53
2019-04-20T02:15:25.678Z,13.28
2019-04-20T02:17:57.891Z,12.43
2019-04-20T02:20:33.010Z,18.98
2019-04-20T02:23:01.847Z,16.67
2019-04-20T02:25:16.321Z,12.03
2019-04-20T02:27:50.276Z,15.00
2019-04-20T02:33:36.192Z,14.13
2019-04-20T02:41:47.634Z,12.20
2019-04-20T02:44:14.719Z,14.75
2019-04-20T02:49:26.189Z,12.43
2019-04-20T02:51:47.601Z,12.55
2019-04-20T02:56:49.879Z,11.80
2019-04-20T02:59:47.545Z,11.20
2019-04-20T03:01:36.154Z,14.70
2019-04-20T03:03:52.698Z,14.23
2019-04-20T03:06:30.755Z,12.10
2019-04-20T03:09:10.067Z,12.50
2019-04-20T03:11:50.012Z,18.12
2019-04-20T03:14:10.677Z,13.72
2019-04-20T03:16:35.809Z,12.98
2019-04-20T03:19:08.097Z,15.08
2019-04-20T03:21:44.766Z,15.65
2019-04-20T03:24:18.867Z,13.58
2019-04-20T03:26:54.641Z,13.70
2019-04-20T03:29:54.594Z,12.98
2019-04-20T03:35:05.311Z,15.85
2019-04-20T03:37:30.724Z,13.78
2019-04-20T03:39:52.621Z,11.97
2019-04-20T03:42:07.523Z,14.95
2019-04-20T03:44:38.889Z,12.37
2019-04-20T03:47:11.571Z,14.00
2019-04-20T03:50:00.991Z,12.63
2019-04-20T03:52:40.362Z,18.10
2019-04-20T03:55:16.216Z,15.65
2019-04-20T03:58:03.395Z,12.80
2019-04-20T04:00:50.429Z,13.95
2019-04-20T04:03:47.219Z,14.83
2019-04-20T04:06:11.731Z,19.62
2019-04-20T04:08:35.817Z,14.60
2019-04-20T04:11:17.552Z,12.15
2019-04-20T04:13:29.091Z,17.40
2019-04-20T04:16:04.421Z,14.70
2019-04-20T04:18:35.427Z,17.25
2019-04-20T04:21:03.916Z,16.30
2019-04-20T04:23:47.110Z,18.42
2019-04-20T04:26:20.368Z,14.30
2019-04-20T04:28:47.527Z,18.80
2019-04-20T04:31:22.971Z,14.53
2019-04-20T04:33:55.920Z,18.67
2019-04-20T04:36:18.172Z,15.08
2019-04-20T04:39:11.188Z,16.75
2019-04-20T04:41:36.431Z,18.85
2019-04-20T04:43:54.213Z,18.52
2019-04-20T04:46:05.825Z,16.05
2019-04-20T04:48:40.318Z,18.23
2019-04-20T04:51:12.855Z,17.27
2019-04-20T04:53:45.252Z,22.40
2019-04-20T04:56:11.681Z,21.42
2019-04-20T04:58:36.485Z,18.20
2019-04-20T05:01:12.697Z,15.53
2019-04-20T05:03:54.002Z,24.47
2019-04-20T05:06:31.802Z,17.15
2019-04-20T05:08:52.416Z,18.30
2019-04-20T05:11:17.330Z,24.87
2019-04-20T05:13:52.849Z,18.10
2019-04-20T05:16:38.523Z,21.25
2019-04-20T05:21:56.432Z,17.65
2019-04-20T05:24:26.892Z,16.97
2019-04-20T05:27:20.891Z,19.65
2019-04-20T05:29:31.863Z,17.70
2019-04-20T05:32:05.987Z,16.48
2019-04-20T05:34:52.357Z,23.57
2019-04-20T05:37:29.713Z,18.02
2019-04-20T05:39:50.462Z,16.67
2019-04-20T05:42:23.386Z,16.05
2019-04-20T05:44:56.506Z,18.00
2019-04-20T05:47:26.991Z,21.68
2019-04-20T05:49:56.131Z,16.85
2019-04-20T05:52:39.110Z,18.70
2019-04-20T05:54:57.653Z,17.27
2019-04-20T05:57:31.965Z,20.25
2019-04-20T06:00:06.835Z,18.35
2019-04-20T06:02:32.266Z,28.38
2019-04-20T06:05:06.942Z,19.67
2019-04-20T06:07:31.127Z,23.45
2019-04-20T06:10:05.981Z,19.80
2019-04-20T06:12:35.802Z,20.10
2019-04-20T06:15:11.867Z,18.65
2019-04-20T06:18:16.571Z,25.40
2019-04-20T06:21:09.371Z,18.65
2019-04-20T06:23:44.489Z,18.80
2019-04-20T06:26:35.158Z,17.45
2019-04-20T06:28:35.330Z,20.65
2019-04-20T06:31:14.931Z,17.55
2019-04-20T06:34:27.682Z,19.82
2019-04-20T06:36:48.157Z,19.40
2019-04-20T06:39:16.177Z,20.75
2019-04-20T06:44:23.023Z,17.32
2019-04-20T06:46:52.456Z,21.27
2019-04-20T06:49:22.685Z,18.25
2019-04-20T06:51:53.165Z,23.87
2019-04-20T06:54:17.346Z,16.00
2019-04-20T06:57:00.217Z,18.15
2019-04-20T06:59:31.823Z,19.42
2019-04-20T07:02:10.073Z,17.40
2019-04-20T07:09:42.045Z,24.80
2019-04-20T07:12:01.505Z,15.98
2019-04-20T07:14:25.979Z,20.17
2019-04-20T07:17:34.994Z,16.55
2019-04-20T07:19:50.423Z,17.65
2019-04-20T07:22:54.321Z,16.27
2019-04-20T07:25:02.485Z,17.67
2019-04-20T07:27:33.056Z,17.15
2019-04-20T07:30:04.067Z,16.42
2019-04-20T07:32:41.832Z,15.80
2019-04-20T07:35:01.535Z,18.82
2019-04-20T07:40:25.786Z,14.43
2019-04-20T07:42:55.189Z,13.85
2019-04-20T07:45:29.543Z,21.23
2019-04-20T07:48:01.354Z,21.12
2019-04-20T07:50:21.761Z,18.62
2019-04-20T07:52:46.193Z,18.48
2019-04-20T07:57:53.780Z,14.65
2019-04-20T08:00:44.231Z,15.85
2019-04-20T08:03:29.677Z,16.17
2019-04-20T08:06:05.333Z,17.77
2019-04-20T08:08:43.782Z,15.35
2019-04-20T08:11:14.142Z,15.88
2019-04-20T08:13:53.983Z,16.65
2019-04-20T08:16:24.300Z,18.37
2019-04-20T08:18:49.883Z,16.05
2019-04-20T08:21:22.845Z,19.30
2019-04-20T08:23:48.947Z,14.13
2019-04-20T08:26:08.787Z,15.25
2019-04-20T08:28:46.595Z,16.62
2019-04-20T08:32:04.807Z,15.35
2019-04-20T08:34:39.723Z,17.48
2019-04-20T08:37:01.391Z,14.55
2019-04-20T08:39:46.933Z,14.43
2019-04-20T08:42:06.335Z,13.78
2019-04-20T08:47:32.269Z,17.70
2019-04-20T08:50:03.531Z,16.93
2019-04-20T08:52:47.112Z,23.20
2019-04-20T08:55:02.464Z,17.35
2019-04-20T08:57:13.377Z,20.00
2019-04-20T08:59:47.037Z,19.35
2019-04-20T09:02:18.405Z,18.50
2019-04-20T09:04:54.074Z,14.33
2019-04-20T09:07:23.262Z,17.35
2019-04-20T09:10:16.446Z,17.90
2019-04-20T09:12:36.860Z,26.07
2019-04-20T09:14:51.266Z,17.60
2019-04-20T09:17:39.732Z,17.85
2019-04-20T09:20:13.803Z,15.72
2019-04-20T09:22:49.119Z,23.80
2019-04-20T09:28:30.887Z,22.58
2019-04-20T09:31:18.557Z,21.97
2019-04-20T09:34:07.446Z,27.52
2019-04-20T09:36:40.799Z,19.60
2019-04-20T09:39:29.577Z,20.08
2019-04-20T09:42:01.083Z,16.07
2019-04-20T09:44:31.517Z,18.23
2019-04-20T09:47:00.299Z,18.35
2019-04-20T09:49:41.408Z,16.77
2019-04-20T09:52:14.565Z,16.93
2019-04-20T09:54:48.238Z,16.23
2019-04-20T09:57:22.608Z,16.65
2019-04-20T09:59:50.054Z,13.40
2019-04-20T10:02:07.839Z,22.87
2019-04-20T10:04:31.676Z,17.23
2019-04-20T10:07:07.957Z,19.17
2019-04-20T10:09:37.499Z,18.27
2019-04-20T10:12:01.745Z,19.95
2019-04-20T10:14:31.027Z,17.42
2019-04-20T10:17:00.102Z,17.25
2019-04-20T10:19:33.686Z,20.20
2019-04-20T10:22:00.395Z,22.77
2019-04-20T10:24:30.522Z,18.73
2019-04-20T10:26:59.241Z,22.35
2019-04-20T10:29:27.980Z,18.23
2019-04-20T10:31:59.282Z,21.35
2019-04-20T10:34:28.370Z,22.98
2019-04-20T10:37:17.602Z,21.68
2019-04-20T10:39:46.832Z,16.02
2019-04-20T10:42:16.297Z,19.30
2019-04-20T10:44:45.177Z,19.15
2019-04-20T10:47:14.709Z,18.92
2019-04-20T10:49:44.934Z,18.98
2019-04-20T10:52:13.764Z,17.10
2019-04-20T10:54:42.720Z,18.35
2019-04-20T10:57:11.566Z,21.77
2019-04-20T10:59:41.454Z,18.95
2019-04-20T11:02:10.095Z,19.57
2019-04-20T11:04:38.826Z,16.62
2019-04-20T11:07:08.295Z,15.23
2019-04-20T11:09:36.956Z,18.50
2019-04-20T11:12:06.338Z,17.67
2019-04-20T11:14:38.748Z,22.02
2019-04-20T11:17:06.643Z,18.65
2019-04-20T11:19:35.308Z,20.30
2019-04-20T11:22:04.326Z,15.00
2019-04-20T11:24:34.369Z,16.05
2019-04-20T11:27:04.514Z,16.80
2019-04-20T11:29:33.912Z,15.98
2019-04-20T11:32:03.107Z,14.23
2019-04-20T11:34:35.215Z,13.00
2019-04-20T11:37:03.400Z,13.30
2019-04-20T11:39:32.897Z,12.18
2019-04-20T11:42:01.675Z,12.43
2019-04-20T11:44:31.617Z,11.85
2019-04-20T11:47:00.903Z,14.95
2019-04-20T11:49:31.216Z,14.87
2019-04-20T11:51:59.883Z,16.27
2019-04-20T11:54:28.429Z,15.53
2019-04-20T11:56:57.442Z,14.00
2019-04-20T11:59:27.390Z,12.13
2019-04-20T12:02:30.321Z,13.45
2019-04-20T12:05:10.044Z,13.75
2019-04-20T12:10:08.162Z,12.58
2019-04-20T12:12:39.009Z,12.60
2019-04-20T12:15:02.604Z,13.05
2019-04-20T12:17:31.436Z,11.73
2019-04-20T12:20:00.144Z,11.73
2019-04-20T12:22:28.735Z,9.95
2019-04-20T12:24:58.195Z,11.57
2019-04-20T12:27:27.004Z,7.45
2019-04-20T12:29:55.536Z,9.43
2019-04-20T12:32:27.081Z,7.80
2019-04-20T12:34:56.038Z,8.10
2019-04-20T12:37:25.095Z,9.45
2019-04-20T12:39:53.740Z,9.10
2019-04-20T12:42:23.111Z,11.60
2019-04-20T12:44:53.356Z,7.62
2019-04-20T12:47:22.164Z,8.78
2019-04-20T12:49:51.633Z,8.43
2019-04-20T12:52:20.731Z,6.67
2019-04-20T12:54:50.439Z,8.93
2019-04-20T12:57:20.594Z,8.98
2019-04-20T12:59:50.736Z,8.30
2019-04-20T13:02:20.102Z,13.90
2019-04-20T13:04:49.144Z,9.23
2019-04-20T13:07:17.887Z,7.47
2019-04-20T13:09:50.735Z,13.75
2019-04-20T13:12:30.349Z,16.60
2019-04-20T13:15:28.776Z,8.73
2019-04-20T13:17:57.416Z,7.00
2019-04-20T13:20:26.058Z,7.53
2019-04-20T13:22:55.041Z,7.08
2019-04-20T13:25:23.717Z,6.97
2019-04-20T13:27:52.766Z,7.55
2019-04-20T13:30:21.795Z,11.28
2019-04-20T13:32:50.390Z,9.33
2019-04-20T13:35:20.464Z,7.00
2019-04-20T13:37:50.000Z,7.78
2019-04-20T13:40:19.698Z,8.58
2019-04-20T13:42:49.795Z,7.83
2019-04-20T13:45:19.217Z,10.03
2019-04-20T13:47:48.701Z,6.67
2019-04-20T13:50:19.965Z,8.90
2019-04-20T13:52:48.965Z,8.83
2019-04-20T13:55:18.803Z,9.73
2019-04-20T13:58:04.215Z,13.38
2019-04-20T14:00:42.907Z,11.70
2019-04-20T14:03:11.527Z,12.10
2019-04-20T14:05:40.544Z,9.45
2019-04-20T14:08:09.875Z,8.45
2019-04-20T14:10:39.707Z,9.98
2019-04-20T14:13:13.612Z,15.23
2019-04-20T14:15:39.115Z,12.75
2019-04-20T14:18:08.973Z,9.93
2019-04-20T14:20:38.183Z,10.55
2019-04-20T14:23:07.385Z,11.15
2019-04-20T14:25:36.757Z,11.50
2019-04-20T14:28:05.416Z,14.60
2019-04-20T14:30:35.135Z,12.20
2019-04-20T14:33:05.224Z,13.98
2019-04-20T14:35:34.655Z,11.95
2019-04-20T14:38:03.866Z,11.40
2019-04-20T14:40:32.643Z,10.32
2019-04-20T14:43:01.686Z,8.43
2019-04-20T14:45:30.474Z,11.00
2019-04-20T14:47:59.559Z,8.53
2019-04-20T14:50:29.718Z,9.60
2019-04-20T14:52:59.684Z,11.45
2019-04-20T14:55:29.256Z,7.85
2019-04-20T14:58:02.020Z,11.25
2019-04-20T15:00:53.057Z,11.50
2019-04-20T15:03:49.949Z,12.03
2019-04-20T15:06:17.899Z,13.48
2019-04-20T15:08:46.561Z,10.05
2019-04-20T15:11:15.236Z,9.80
2019-04-20T15:13:44.744Z,11.90
2019-04-20T15:16:14.899Z,12.03
2019-04-20T15:19:07.543Z,10.48
2019-04-20T15:21:37.705Z,11.78
2019-04-20T15:24:06.416Z,12.30
2019-04-20T15:26:36.190Z,12.65
2019-04-20T15:29:06.354Z,11.25
2019-04-20T15:31:36.409Z,8.63
2019-04-20T15:34:05.170Z,11.20
2019-04-20T15:36:34.316Z,9.43
2019-04-20T15:39:05.479Z,12.58
2019-04-20T15:41:35.730Z,12.25
2019-04-20T15:44:04.515Z,11.43
2019-04-20T15:46:34.657Z,12.68
2019-04-20T15:49:06.115Z,14.30
2019-04-20T15:51:34.870Z,11.22
2019-04-20T15:54:03.551Z,15.13
2019-04-20T15:56:33.277Z,9.83
2019-04-20T15:59:02.343Z,11.97
2019-04-20T16:01:36.601Z,13.08
2019-04-20T16:04:20.754Z,12.03
2019-04-20T16:06:41.479Z,13.65
2019-04-20T16:09:10.484Z,10.70
2019-04-20T16:11:39.313Z,10.13
2019-04-20T16:14:09.058Z,12.70
2019-04-20T16:16:37.696Z,10.40
2019-04-20T16:19:14.707Z,13.43
2019-04-20T16:21:37.487Z,10.53
2019-04-20T16:24:15.114Z,11.25
2019-04-20T16:27:09.665Z,12.68
2019-04-20T16:29:39.697Z,11.85
2019-04-20T16:32:08.919Z,10.60
2019-04-20T16:34:38.401Z,12.45
2019-04-20T16:37:08.605Z,13.40
2019-04-20T16:39:38.561Z,10.13
2019-04-20T16:42:09.302Z,10.58
2019-04-20T16:44:38.943Z,12.40
2019-04-20T16:47:08.037Z,11.50
2019-04-20T16:49:37.055Z,12.55
2019-04-20T16:52:07.244Z,12.65
2019-04-20T16:54:36.121Z,9.35
2019-04-20T16:57:06.457Z,9.90
2019-04-20T16:59:40.182Z,13.43
2019-04-20T17:02:06.653Z,11.50
2019-04-20T17:04:35.689Z,14.25
2019-04-20T17:07:42.806Z,16.93
2019-04-20T17:10:14.176Z,13.05
2019-04-20T17:12:43.849Z,13.75
2019-04-20T17:15:14.060Z,13.60
2019-04-20T17:17:43.348Z,11.55
2019-04-20T17:20:13.711Z,12.58
2019-04-20T17:22:42.540Z,12.65
2019-04-20T17:25:14.194Z,12.10
2019-04-20T17:27:49.147Z,19.10
2019-04-20T17:30:42.188Z,13.88
2019-04-20T17:33:13.870Z,17.20
2019-04-20T17:35:53.196Z,13.35
2019-04-20T17:38:14.361Z,16.57
2019-04-20T17:41:01.309Z,15.23
2019-04-20T17:43:22.091Z,16.42
2019-04-20T17:45:54.326Z,15.23
2019-04-20T17:48:29.695Z,16.90
2019-04-20T17:51:06.629Z,13.75
2019-04-20T17:53:57.744Z,15.70
2019-04-20T17:56:22.205Z,14.00
2019-04-20T17:58:52.163Z,16.55
2019-04-20T18:02:00.392Z,20.72
2019-04-20T18:04:51.972Z,22.82
2019-04-20T18:06:57.932Z,18.82
2019-04-20T18:09:39.929Z,20.45
2019-04-20T18:11:53.739Z,23.85
2019-04-20T18:14:37.445Z,27.32
2019-04-20T18:17:10.159Z,19.77
2019-04-20T18:19:42.798Z,21.82
2019-04-20T18:22:11.950Z,15.98
2019-04-20T18:25:02.704Z,22.30
2019-04-20T18:27:36.252Z,21.93
2019-04-20T18:30:04.032Z,19.32
2019-04-20T18:32:23.616Z,18.17
2019-04-20T18:34:59.191Z,14.68
2019-04-20T18:37:26.868Z,20.10
2019-04-20T18:40:03.101Z,17.02
2019-04-20T18:42:34.341Z,18.12
2019-04-20T18:45:17.282Z,16.50
2019-04-20T18:47:46.926Z,15.18
2019-04-20T18:50:08.514Z,13.43
2019-04-20T18:52:29.518Z,15.98
2019-04-20T18:54:59.384Z,19.45
2019-04-20T18:57:29.642Z,16.50
2019-04-20T19:00:00.593Z,16.17
2019-04-20T19:02:33.449Z,20.25
2019-04-20T19:05:02.115Z,14.85
2019-04-20T19:07:34.862Z,27.52
2019-04-20T19:10:13.870Z,18.50
2019-04-20T19:12:41.494Z,22.45
2019-04-20T19:15:47.881Z,19.92
2019-04-20T19:18:15.686Z,24.50
2019-04-20T19:20:39.129Z,24.50
2019-04-20T19:23:08.405Z,47.95
2019-04-20T19:25:40.345Z,27.42
2019-04-20T19:28:08.860Z,28.73
2019-04-20T19:30:49.568Z,27.65
2019-04-20T19:33:22.717Z,24.52
2019-04-20T19:35:50.167Z,27.32
2019-04-20T19:38:18.626Z,20.97
2019-04-20T19:40:51.539Z,19.10
2019-04-20T19:43:22.069Z,19.87
2019-04-20T19:46:16.722Z,19.32
2019-04-20T19:48:27.899Z,17.80
2019-04-20T19:51:05.870Z,17.65
2019-04-20T19:53:31.857Z,18.60
2019-04-20T19:56:00.079Z,12.45
2019-04-20T19:58:28.097Z,13.22
2019-04-20T20:00:51.353Z,18.67
2019-04-20T20:03:17.958Z,10.48
2019-04-20T20:05:49.943Z,21.55
2019-04-20T20:08:23.027Z,16.20
2019-04-20T20:10:48.436Z,20.80
2019-04-20T20:13:18.256Z,13.48
2019-04-20T20:15:47.059Z,13.85
2019-04-20T20:18:33.391Z,14.25
2019-04-20T20:21:01.082Z,13.70
2019-04-20T20:23:18.167Z,13.30
2019-04-20T20:25:49.636Z,13.10
2019-04-20T20:28:30.808Z,14.55
2019-04-20T20:30:56.836Z,13.72
2019-04-20T20:33:35.258Z,14.98
2019-04-20T20:35:58.348Z,20.35
2019-04-20T20:38:28.034Z,15.93
2019-04-20T20:40:58.952Z,13.65
2019-04-20T20:43:34.413Z,14.13
2019-04-20T20:46:05.263Z,15.10
2019-04-20T20:48:35.648Z,16.17
2019-04-20T20:51:09.782Z,14.95
2019-04-20T20:53:41.938Z,18.62
2019-04-20T20:56:06.625Z,21.87
2019-04-20T20:58:40.183Z,15.63
2019-04-20T21:01:04.366Z,17.48
2019-04-20T21:03:32.299Z,15.03
2019-04-20T21:05:57.885Z,15.58
2019-04-20T21:08:26.732Z,16.32
2019-04-20T21:10:56.540Z,19.20
2019-04-20T21:13:33.286Z,22.75
2019-04-20T21:16:02.527Z,19.37
2019-04-20T21:18:49.106Z,17.35
2019-04-20T21:21:11.713Z,16.40
2019-04-20T21:23:37.026Z,14.95
2019-04-20T21:26:12.673Z,21.87
2019-04-20T21:28:39.818Z,18.02
2019-04-20T21:31:16.258Z,16.25
2019-04-20T21:33:40.576Z,14.25
2019-04-20T21:36:13.497Z,12.25
2019-04-20T21:38:42.490Z,18.75
2019-04-20T21:41:15.002Z,17.25
2019-04-20T21:43:44.392Z,13.50
2019-04-20T21:46:13.887Z,19.10
2019-04-20T21:48:55.950Z,14.50
2019-04-20T21:51:25.715Z,14.23
2019-04-20T21:53:44.319Z,14.95
2019-04-20T21:56:13.127Z,13.78
2019-04-20T21:58:49.446Z,15.25
2019-04-20T22:01:24.260Z,13.03
2019-04-20T22:03:44.731Z,13.83
2019-04-20T22:06:14.146Z,12.88
2019-04-20T22:08:45.930Z,13.95
2019-04-20T22:11:13.683Z,13.80
2019-04-20T22:13:44.566Z,14.85
2019-04-20T22:16:14.740Z,16.93
2019-04-20T22:18:54.017Z,17.75
2019-04-20T22:21:22.762Z,13.50
2019-04-20T22:24:01.822Z,16.10
2019-04-20T22:26:25.340Z,14.40
2019-04-20T22:28:47.943Z,18.37
2019-04-20T22:31:18.197Z,15.00
2019-04-20T22:33:48.708Z,20.88
2019-04-20T22:36:18.222Z,16.37
2019-04-20T22:39:07.582Z,17.92
2019-04-20T22:41:45.744Z,17.55
2019-04-20T22:44:15.127Z,20.80
2019-04-20T22:46:44.101Z,18.92
2019-04-20T22:49:32.960Z,17.32
2019-04-20T22:51:53.189Z,17.45
2019-04-20T22:54:27.902Z,15.48
2019-04-20T22:56:58.567Z,23.18
2019-04-20T22:59:21.119Z,17.12
2019-04-20T23:01:52.078Z,15.15
2019-04-20T23:04:17.058Z,18.27
2019-04-20T23:06:49.767Z,16.80
2019-04-20T23:09:16.861Z,18.80
2019-04-20T23:11:45.524Z,15.75
2019-04-20T23:14:14.408Z,18.05
2019-04-20T23:16:48.658Z,18.92
2019-04-20T23:19:14.222Z,19.00
2019-04-20T23:21:48.718Z,17.87
2019-04-20T23:24:15.339Z,19.50
2019-04-20T23:26:46.902Z,25.05
2019-04-20T23:29:15.394Z,17.62
2019-04-20T23:31:50.524Z,20.62
2019-04-20T23:34:20.135Z,16.45
2019-04-20T23:36:48.815Z,15.70
2019-04-20T23:39:17.019Z,16.65
2019-04-20T23:41:53.743Z,17.15
2019-04-20T23:44:29.402Z,18.40
2019-04-20T23:47:17.152Z,15.15
2019-04-20T23:50:03.960Z,18.30
2019-04-20T23:52:43.106Z,20.55
2019-04-20T23:54:58.113Z,18.12
2019-04-20T23:57:21.867Z,19.15
2019-04-20T23:59:52.012Z,19.50
